createdAt,value
2022-11-17T00:00:23.660Z,98456.44
2022-11-17T00:01:11.180Z,98465.69
2022-11-17T00:01:58.168Z,98466.53
2022-11-17T00:02:46.043Z,98461.81
2022-11-17T00:03:33.582Z,98465.12
2022-11-17T00:04:20.869Z,98474.03
2022-11-17T00:05:08.171Z,98469.47
2022-11-17T00:05:55.059Z,98468.22
2022-11-17T00:06:42.097Z,98465.97
2022-11-17T00:07:29.104Z,98465.53
2022-11-17T00:08:16.011Z,98463.28
2022-11-17T00:09:02.979Z,98461.59
2022-11-17T00:09:49.804Z,98455.41
2022-11-17T00:10:36.739Z,98454.78
2022-11-17T00:11:23.700Z,98457.47
2022-11-17T00:12:32.784Z,98458.88
2022-11-17T00:13:38.608Z,98457.44
2022-11-17T00:14:34.699Z,98451.69
2022-11-17T00:15:21.590Z,98459.38
2022-11-17T00:16:08.541Z,98450.84
2022-11-17T00:16:55.397Z,98457.47
2022-11-17T00:17:42.448Z,98451.47
2022-11-17T00:18:55.370Z,98457.50
2022-11-17T00:20:00.740Z,98453.81
2022-11-17T00:21:06.249Z,98452.97
2022-11-17T00:21:53.280Z,98453.16
2022-11-17T00:22:40.173Z,98454.22
2022-11-17T00:23:47.424Z,98464.75
2022-11-17T00:24:34.770Z,98465.81
2022-11-17T00:25:21.639Z,98462.06
2022-11-17T00:26:08.609Z,98464.13
2022-11-17T00:27:04.533Z,98474.03
2022-11-17T00:27:51.660Z,98470.94
2022-11-17T00:28:38.509Z,98468.50
2022-11-17T00:29:25.522Z,98465.81
2022-11-17T00:30:32.891Z,98467.25
2022-11-17T00:31:38.555Z,98468.06
2022-11-17T00:32:44.031Z,98468.31
2022-11-17T00:33:49.543Z,98463.97
2022-11-17T00:34:36.489Z,98469.13
2022-11-17T00:35:23.340Z,98470.94
2022-11-17T00:36:10.191Z,98470.75
2022-11-17T00:36:57.469Z,98469.75
2022-11-17T00:38:02.841Z,98468.91
2022-11-17T00:38:49.639Z,98469.72
2022-11-17T00:39:36.710Z,98464.38
2022-11-17T00:40:23.620Z,98473.06
2022-11-17T00:41:10.486Z,98472.03
2022-11-17T00:41:57.591Z,98470.41
2022-11-17T00:42:44.438Z,98477.00
2022-11-17T00:43:31.296Z,98481.53
2022-11-17T00:44:18.410Z,98486.50
2022-11-17T00:45:06.146Z,98481.50
2022-11-17T00:45:53.037Z,98473.25
2022-11-17T00:46:40.314Z,98475.34
2022-11-17T00:47:27.201Z,98473.50
2022-11-17T00:48:14.129Z,98478.66
2022-11-17T00:49:01.081Z,98476.41
2022-11-17T00:49:48.012Z,98474.53
2022-11-17T00:50:35.000Z,98468.97
2022-11-17T00:51:22.035Z,98474.34
2022-11-17T00:52:10.159Z,98476.19
2022-11-17T00:52:57.011Z,98472.47
2022-11-17T00:53:43.941Z,98472.47
2022-11-17T00:54:31.068Z,98473.09
2022-11-17T00:55:17.932Z,98469.97
2022-11-17T00:56:05.008Z,98472.25
2022-11-17T00:56:52.115Z,98469.78
2022-11-17T00:57:39.000Z,98469.97
2022-11-17T00:58:25.920Z,98469.13
2022-11-17T00:59:12.870Z,98467.28
2022-11-17T00:59:59.758Z,98479.09
2022-11-17T01:00:51.741Z,98475.56
2022-11-17T01:01:39.944Z,98475.16
2022-11-17T01:02:26.980Z,98466.88
2022-11-17T01:03:13.890Z,98475.16
2022-11-17T01:04:04.640Z,98478.84
2022-11-17T01:04:51.591Z,98482.97
2022-11-17T01:05:38.431Z,98480.69
2022-11-17T01:06:25.310Z,98483.38
2022-11-17T01:07:12.296Z,98476.37
2022-11-17T01:07:59.450Z,98482.97
2022-11-17T01:08:46.767Z,98489.81
2022-11-17T01:09:33.591Z,98484.00
2022-11-17T01:10:20.450Z,98488.56
2022-11-17T01:11:13.290Z,98486.72
2022-11-17T01:12:00.158Z,98484.44
2022-11-17T01:12:47.183Z,98481.12
2022-11-17T01:13:34.549Z,98479.66
2022-11-17T01:14:24.949Z,98476.97
2022-11-17T01:15:11.832Z,98478.81
2022-11-17T01:16:06.772Z,98477.84
2022-11-17T01:16:54.163Z,98485.44
2022-11-17T01:17:41.120Z,98480.25
2022-11-17T01:18:28.712Z,98472.81
2022-11-17T01:19:16.186Z,98469.50
2022-11-17T01:20:03.920Z,98478.00
2022-11-17T01:20:50.830Z,98472.22
2022-11-17T01:21:38.251Z,98465.41
2022-11-17T01:22:25.141Z,98465.62
2022-11-17T01:23:12.041Z,98465.19
2022-11-17T01:24:01.200Z,98462.50
2022-11-17T01:24:48.112Z,98472.62
2022-11-17T01:25:34.974Z,98460.03
2022-11-17T01:26:27.325Z,98457.75
2022-11-17T01:27:14.143Z,98459.22
2022-11-17T01:28:01.001Z,98464.59
2022-11-17T01:28:48.610Z,98456.53
2022-11-17T01:29:35.614Z,98456.75
2022-11-17T01:30:22.610Z,98451.97
2022-11-17T01:31:12.710Z,98460.87
2022-11-17T01:31:59.547Z,98451.97
2022-11-17T01:32:46.419Z,98458.59
2022-11-17T01:33:34.289Z,98459.63
2022-11-17T01:34:21.550Z,98452.41
2022-11-17T01:35:08.951Z,98458.38
2022-11-17T01:35:56.030Z,98457.56
2022-11-17T01:37:02.299Z,98466.25
2022-11-17T01:37:49.182Z,98461.53
2022-11-17T01:38:36.099Z,98456.94
2022-11-17T01:39:27.123Z,98455.28
2022-11-17T01:40:14.464Z,98454.44
2022-11-17T01:41:02.949Z,98455.06
2022-11-17T01:41:50.079Z,98450.72
2022-11-17T01:42:36.941Z,98446.81
2022-11-17T01:43:48.280Z,98449.06
2022-11-17T01:44:55.459Z,98438.75
2022-11-17T01:45:42.351Z,98434.00
2022-11-17T01:46:32.780Z,98428.81
2022-11-17T01:47:27.730Z,98435.44
2022-11-17T01:48:15.500Z,98436.69
2022-11-17T01:49:07.520Z,98433.75
2022-11-17T01:50:20.660Z,98426.31
2022-11-17T01:51:07.601Z,98430.87
2022-11-17T01:52:03.402Z,98428.22
2022-11-17T01:52:51.741Z,98427.56
2022-11-17T01:53:39.421Z,98426.75
2022-11-17T01:54:28.511Z,98424.25
2022-11-17T01:55:15.603Z,98436.25
2022-11-17T01:56:11.301Z,98429.44
2022-11-17T01:57:01.651Z,98436.69
2022-11-17T01:58:01.460Z,98437.50
2022-11-17T01:58:54.833Z,98432.75
2022-11-17T01:59:45.060Z,98435.62
2022-11-17T02:00:31.958Z,98437.09
2022-11-17T02:01:18.927Z,98438.13
2022-11-17T02:02:06.112Z,98439.56
2022-11-17T02:02:53.420Z,98435.25
2022-11-17T02:03:40.449Z,98434.19
2022-11-17T02:05:16.840Z,98437.31
2022-11-17T02:06:10.880Z,98437.94
2022-11-17T02:07:12.246Z,98429.03
2022-11-17T02:08:02.666Z,98428.00
2022-11-17T02:08:50.750Z,98422.00
2022-11-17T02:09:39.144Z,98424.50
2022-11-17T02:10:27.259Z,98416.19
2022-11-17T02:11:17.839Z,98418.06
2022-11-17T02:12:04.698Z,98417.63
2022-11-17T02:12:53.629Z,98417.25
2022-11-17T02:13:40.728Z,98411.88
2022-11-17T02:14:27.799Z,98416.81
2022-11-17T02:15:14.929Z,98414.31
2022-11-17T02:16:01.788Z,98417.00
2022-11-17T02:16:48.759Z,98416.44
2022-11-17T02:17:39.219Z,98411.06
2022-11-17T02:18:26.850Z,98416.00
2022-11-17T02:19:15.820Z,98411.88
2022-11-17T02:20:17.567Z,98411.00
2022-11-17T02:21:39.653Z,98410.44
2022-11-17T02:22:57.429Z,98412.06
2022-11-17T02:24:25.201Z,98403.00
2022-11-17T02:25:36.568Z,98400.69
2022-11-17T02:26:57.749Z,98391.38
2022-11-17T02:27:46.301Z,98385.19
2022-11-17T02:28:35.230Z,98376.09
2022-11-17T02:29:27.789Z,98371.56
2022-11-17T02:30:17.432Z,98372.19
2022-11-17T02:31:39.774Z,98376.50
2022-11-17T02:32:35.089Z,98379.44
2022-11-17T02:33:42.728Z,98381.88
2022-11-17T02:35:15.928Z,98377.13
2022-11-17T02:36:25.669Z,98378.81
2022-11-17T02:37:29.459Z,98385.81
2022-11-17T02:38:40.988Z,98388.75
2022-11-17T02:39:50.339Z,98393.87
2022-11-17T02:40:49.447Z,98397.00
2022-11-17T02:41:47.958Z,98400.13
2022-11-17T02:43:02.049Z,98394.31
2022-11-17T02:44:19.018Z,98402.81
2022-11-17T02:45:08.029Z,98390.81
2022-11-17T02:46:01.323Z,98391.00
2022-11-17T02:46:55.147Z,98391.81
2022-11-17T02:47:42.927Z,98397.19
2022-11-17T02:48:36.026Z,98391.19
2022-11-17T02:49:34.698Z,98391.00
2022-11-17T02:50:27.871Z,98387.88
2022-11-17T02:51:19.518Z,98393.87
2022-11-17T02:52:06.837Z,98395.56
2022-11-17T02:52:53.689Z,98396.81
2022-11-17T02:53:41.237Z,98392.44
2022-11-17T02:54:30.040Z,98390.38
2022-11-17T02:55:16.978Z,98394.75
2022-11-17T02:56:04.088Z,98385.22
2022-11-17T02:56:50.985Z,98393.06
2022-11-17T02:57:40.467Z,98389.97
2022-11-17T02:58:27.368Z,98391.63
2022-11-17T02:59:16.668Z,98391.63
2022-11-17T03:00:14.728Z,98392.25
2022-11-17T03:01:47.347Z,98397.00
2022-11-17T03:02:39.897Z,98397.62
2022-11-17T03:03:54.199Z,98400.13
2022-11-17T03:04:51.311Z,98403.19
2022-11-17T03:05:50.228Z,98391.81
2022-11-17T03:06:53.236Z,98392.25
2022-11-17T03:08:09.798Z,98396.59
2022-11-17T03:09:15.007Z,98391.41
2022-11-17T03:10:27.410Z,98391.81
2022-11-17T03:11:14.637Z,98390.59
2022-11-17T03:12:14.288Z,98394.94
2022-11-17T03:13:12.986Z,98387.50
2022-11-17T03:14:20.039Z,98391.00
2022-11-17T03:15:34.387Z,98389.34
2022-11-17T03:16:33.586Z,98386.88
2022-11-17T03:17:24.469Z,98388.31
2022-11-17T03:18:19.368Z,98395.38
2022-11-17T03:19:29.548Z,98383.34
2022-11-17T03:20:47.358Z,98385.41
2022-11-17T03:21:36.870Z,98385.41
2022-11-17T03:22:45.527Z,98383.16
2022-11-17T03:23:55.379Z,98393.06
2022-11-17T03:24:53.638Z,98387.50
2022-11-17T03:25:43.098Z,98379.63
2022-11-17T03:26:36.037Z,98383.16
2022-11-17T03:27:29.547Z,98375.09
2022-11-17T03:28:18.164Z,98381.69
2022-11-17T03:29:08.106Z,98376.72
2022-11-17T03:30:01.127Z,98380.22
2022-11-17T03:30:49.297Z,98373.41
2022-11-17T03:31:37.887Z,98371.97
2022-11-17T03:32:25.077Z,98377.34
2022-11-17T03:33:16.433Z,98379.41
2022-11-17T03:34:06.507Z,98376.72
2022-11-17T03:34:56.889Z,98380.03
2022-11-17T03:35:50.949Z,98385.00
2022-11-17T03:36:41.468Z,98382.72
2022-11-17T03:37:31.928Z,98379.84
2022-11-17T03:38:19.948Z,98376.09
2022-11-17T03:39:28.106Z,98376.53
2022-11-17T03:40:19.275Z,98378.78
2022-11-17T03:41:07.560Z,98373.22
2022-11-17T03:41:59.906Z,98375.28
2022-11-17T03:42:52.888Z,98379.41
2022-11-17T03:43:41.387Z,98371.16
2022-11-17T03:44:30.041Z,98373.00
2022-11-17T03:45:21.100Z,98381.09
2022-11-17T03:46:11.041Z,98382.09
2022-11-17T03:46:59.399Z,98373.62
2022-11-17T03:47:47.029Z,98375.69
2022-11-17T03:48:49.486Z,98383.16
2022-11-17T03:49:40.236Z,98381.69
2022-11-17T03:50:37.260Z,98389.16
2022-11-17T03:51:26.414Z,98382.09
2022-11-17T03:52:13.447Z,98397.00
2022-11-17T03:53:02.459Z,98397.62
2022-11-17T03:53:50.036Z,98387.69
2022-11-17T03:54:37.187Z,98392.25
2022-11-17T03:55:27.906Z,98399.50
2022-11-17T03:56:33.507Z,98395.38
2022-11-17T03:57:40.984Z,98389.97
2022-11-17T03:58:30.354Z,98398.44
2022-11-17T03:59:47.939Z,98389.56
2022-11-17T04:00:35.378Z,98392.87
2022-11-17T04:01:23.288Z,98393.91
2022-11-17T04:02:15.467Z,98397.62
2022-11-17T04:03:02.399Z,98393.50
2022-11-17T04:03:49.478Z,98395.97
2022-11-17T04:04:54.936Z,98387.28
2022-11-17T04:05:41.977Z,98394.50
2022-11-17T04:06:28.876Z,98388.75
2022-11-17T04:07:15.737Z,98397.44
2022-11-17T04:08:02.638Z,98396.38
2022-11-17T04:08:50.038Z,98397.44
2022-11-17T04:09:36.966Z,98398.44
2022-11-17T04:10:25.996Z,98399.87
2022-11-17T04:11:31.728Z,98397.81
2022-11-17T04:12:37.324Z,98399.50
2022-11-17T04:13:42.975Z,98398.44
2022-11-17T04:14:48.606Z,98402.38
2022-11-17T04:15:54.348Z,98404.06
2022-11-17T04:16:41.248Z,98402.38
2022-11-17T04:17:28.167Z,98405.91
2022-11-17T04:18:15.618Z,98406.13
2022-11-17T04:19:02.518Z,98406.75
2022-11-17T04:19:49.298Z,98405.50
2022-11-17T04:20:36.241Z,98413.56
2022-11-17T04:21:23.057Z,98407.13
2022-11-17T04:22:10.040Z,98410.66
2022-11-17T04:23:09.455Z,98404.44
2022-11-17T04:23:58.107Z,98397.62
2022-11-17T04:24:44.926Z,98406.72
2022-11-17T04:25:58.227Z,98403.81
2022-11-17T04:27:03.949Z,98405.06
2022-11-17T04:28:09.526Z,98405.50
2022-11-17T04:28:56.469Z,98402.56
2022-11-17T04:29:43.417Z,98394.75
2022-11-17T04:30:30.306Z,98400.13
2022-11-17T04:31:22.872Z,98401.56
2022-11-17T04:32:09.756Z,98407.97
2022-11-17T04:32:56.558Z,98409.81
2022-11-17T04:33:46.968Z,98404.06
2022-11-17T04:34:33.821Z,98406.75
2022-11-17T04:35:20.636Z,98407.34
2022-11-17T04:36:08.097Z,98406.50
2022-11-17T04:36:54.958Z,98407.37
2022-11-17T04:37:41.787Z,98404.25
2022-11-17T04:38:28.729Z,98400.13
2022-11-17T04:39:16.337Z,98405.06
2022-11-17T04:40:03.518Z,98407.37
2022-11-17T04:41:08.817Z,98405.06
2022-11-17T04:41:57.661Z,98406.94
2022-11-17T04:42:44.555Z,98410.06
2022-11-17T04:43:31.574Z,98401.97
2022-11-17T04:44:18.626Z,98404.66
2022-11-17T04:45:05.986Z,98411.31
2022-11-17T04:45:52.877Z,98407.13
2022-11-17T04:46:40.657Z,98408.59
2022-11-17T04:47:27.628Z,98408.59
2022-11-17T04:48:14.549Z,98412.94
2022-11-17T04:49:02.046Z,98408.19
2022-11-17T04:49:49.018Z,98413.38
2022-11-17T04:50:35.977Z,98403.22
2022-11-17T04:51:23.844Z,98410.06
2022-11-17T04:52:10.787Z,98404.88
2022-11-17T04:52:58.136Z,98410.69
2022-11-17T04:53:45.568Z,98411.31
2022-11-17T04:54:32.548Z,98416.06
2022-11-17T04:55:19.416Z,98415.63
2022-11-17T04:56:06.647Z,98416.06
2022-11-17T04:56:54.607Z,98406.53
2022-11-17T04:57:41.499Z,98416.06
2022-11-17T04:58:28.676Z,98407.97
2022-11-17T04:59:15.497Z,98406.31
2022-11-17T05:00:02.490Z,98404.22
2022-11-17T05:00:49.428Z,98413.34
2022-11-17T05:01:36.848Z,98410.66
2022-11-17T05:02:24.045Z,98412.31
2022-11-17T05:03:10.907Z,98411.28
2022-11-17T05:03:59.946Z,98403.03
2022-11-17T05:04:58.767Z,98408.78
2022-11-17T05:05:46.997Z,98413.56
2022-11-17T05:06:39.479Z,98418.13
2022-11-17T05:07:26.377Z,98422.06
2022-11-17T05:08:13.938Z,98417.31
2022-11-17T05:09:12.442Z,98419.38
2022-11-17T05:09:59.409Z,98421.63
2022-11-17T05:11:04.873Z,98419.56
2022-11-17T05:12:10.639Z,98421.63
2022-11-17T05:13:16.068Z,98415.63
2022-11-17T05:14:03.722Z,98423.91
2022-11-17T05:14:50.693Z,98427.44
2022-11-17T05:15:56.168Z,98427.22
2022-11-17T05:17:08.461Z,98419.34
2022-11-17T05:17:56.147Z,98424.31
2022-11-17T05:18:43.847Z,98426.00
2022-11-17T05:19:35.597Z,98417.91
2022-11-17T05:20:22.510Z,98419.38
2022-11-17T05:21:11.247Z,98419.56
2022-11-17T05:21:58.069Z,98418.13
2022-11-17T05:23:06.887Z,98423.50
2022-11-17T05:23:56.688Z,98412.09
2022-11-17T05:24:43.657Z,98419.97
2022-11-17T05:25:30.559Z,98419.34
2022-11-17T05:26:17.987Z,98421.84
2022-11-17T05:27:04.819Z,98423.72
2022-11-17T05:27:53.723Z,98420.81
2022-11-17T05:28:40.808Z,98419.78
2022-11-17T05:29:27.757Z,98426.59
2022-11-17T05:30:15.110Z,98424.72
2022-11-17T05:31:01.978Z,98414.59
2022-11-17T05:31:49.338Z,98409.63
2022-11-17T05:32:36.283Z,98407.78
2022-11-17T05:33:23.358Z,98411.72
2022-11-17T05:34:12.899Z,98413.97
2022-11-17T05:34:59.899Z,98408.59
2022-11-17T05:35:46.759Z,98415.22
2022-11-17T05:36:34.136Z,98415.63
2022-11-17T05:37:21.189Z,98417.28
2022-11-17T05:38:08.087Z,98426.81
2022-11-17T05:38:55.387Z,98426.19
2022-11-17T05:39:42.472Z,98421.22
2022-11-17T05:40:29.519Z,98421.84
2022-11-17T05:41:17.178Z,98420.81
2022-11-17T05:42:04.160Z,98420.38
2022-11-17T05:42:55.873Z,98418.53
2022-11-17T05:43:44.691Z,98420.19
2022-11-17T05:44:31.606Z,98419.38
2022-11-17T05:45:18.421Z,98423.06
2022-11-17T05:46:05.418Z,98414.38
2022-11-17T05:46:52.260Z,98425.56
2022-11-17T05:47:39.119Z,98416.03
2022-11-17T05:48:26.049Z,98426.00
2022-11-17T05:49:12.927Z,98422.03
2022-11-17T05:49:59.788Z,98428.69
2022-11-17T05:50:46.799Z,98429.31
2022-11-17T05:51:33.797Z,98431.78
2022-11-17T05:52:20.629Z,98425.38
2022-11-17T05:53:07.498Z,98425.97
2022-11-17T05:53:54.378Z,98429.69
2022-11-17T05:54:41.257Z,98430.75
2022-11-17T05:55:28.187Z,98429.69
2022-11-17T05:56:33.639Z,98427.84
2022-11-17T05:57:25.793Z,98428.88
2022-11-17T05:58:27.248Z,98437.78
2022-11-17T05:59:39.523Z,98439.66
2022-11-17T06:00:26.428Z,98442.34
2022-11-17T06:01:14.652Z,98446.03
2022-11-17T06:02:11.597Z,98439.03
2022-11-17T06:03:01.117Z,98438.81
2022-11-17T06:03:52.127Z,98455.78
2022-11-17T06:04:39.801Z,98454.53
2022-11-17T06:05:26.809Z,98453.72
2022-11-17T06:06:14.029Z,98451.22
2022-11-17T06:07:01.412Z,98458.47
2022-11-17T06:07:48.968Z,98458.66
2022-11-17T06:08:37.045Z,98457.22
2022-11-17T06:09:24.049Z,98451.03
2022-11-17T06:10:11.112Z,98453.09
2022-11-17T06:10:58.007Z,98456.81
2022-11-17T06:11:44.907Z,98460.94
2022-11-17T06:12:31.900Z,98454.16
2022-11-17T06:13:22.235Z,98458.47
2022-11-17T06:14:09.179Z,98456.59
2022-11-17T06:14:56.049Z,98460.75
2022-11-17T06:15:42.979Z,98451.66
2022-11-17T06:16:32.019Z,98457.84
2022-11-17T06:17:26.973Z,98457.44
2022-11-17T06:18:16.589Z,98458.91
2022-11-17T06:19:15.131Z,98453.09
2022-11-17T06:20:07.531Z,98458.47
2022-11-17T06:20:54.959Z,98453.50
2022-11-17T06:22:09.988Z,98454.53
2022-11-17T06:22:49.158Z,98450.59
2022-11-17T06:23:37.195Z,98446.66
2022-11-17T06:24:24.609Z,98445.66
2022-11-17T06:25:11.831Z,98448.53
2022-11-17T06:26:00.876Z,98451.66
2022-11-17T06:26:47.771Z,98448.97
2022-11-17T06:27:35.457Z,98447.91
2022-11-17T06:28:22.888Z,98446.28
2022-11-17T06:29:11.269Z,98441.28
2022-11-17T06:30:00.538Z,98442.34
2022-11-17T06:30:47.818Z,98442.97
2022-11-17T06:31:34.723Z,98446.28
2022-11-17T06:32:21.912Z,98437.56
2022-11-17T06:33:10.917Z,98439.63
2022-11-17T06:33:57.808Z,98448.53
2022-11-17T06:34:49.140Z,98446.28
2022-11-17T06:35:37.529Z,98446.91
2022-11-17T06:36:25.019Z,98448.97
2022-11-17T06:37:12.380Z,98441.28
2022-11-17T06:38:00.292Z,98450.59
2022-11-17T06:38:47.238Z,98439.25
2022-11-17T06:39:34.230Z,98438.63
2022-11-17T06:40:21.132Z,98440.25
2022-11-17T06:41:11.858Z,98438.19
2022-11-17T06:41:59.111Z,98441.31
2022-11-17T06:43:06.858Z,98440.47
2022-11-17T06:43:53.815Z,98439.84
2022-11-17T06:44:40.703Z,98445.44
2022-11-17T06:45:27.967Z,98437.75
2022-11-17T06:46:14.878Z,98437.75
2022-11-17T06:47:02.803Z,98445.00
2022-11-17T06:47:49.659Z,98442.12
2022-11-17T06:48:36.905Z,98446.06
2022-11-17T06:49:23.988Z,98443.38
2022-11-17T06:50:11.055Z,98446.06
2022-11-17T06:50:58.030Z,98447.09
2022-11-17T06:51:45.529Z,98451.22
2022-11-17T06:52:32.720Z,98452.88
2022-11-17T06:53:19.809Z,98448.53
2022-11-17T06:54:09.136Z,98444.59
2022-11-17T06:54:56.208Z,98442.94
2022-11-17T06:55:43.298Z,98447.06
2022-11-17T06:56:30.530Z,98446.03
2022-11-17T06:57:17.500Z,98432.78
2022-11-17T06:58:09.073Z,98435.88
2022-11-17T06:58:56.876Z,98444.78
2022-11-17T06:59:43.762Z,98454.09
2022-11-17T07:00:31.185Z,98451.81
2022-11-17T07:01:18.366Z,98448.50
2022-11-17T07:02:05.320Z,98447.25
2022-11-17T07:02:52.508Z,98446.44
2022-11-17T07:03:40.970Z,98448.72
2022-11-17T07:04:27.931Z,98448.91
2022-11-17T07:05:15.038Z,98449.56
2022-11-17T07:06:03.149Z,98455.94
2022-11-17T07:06:50.313Z,98452.00
2022-11-17T07:07:37.365Z,98449.72
2022-11-17T07:08:24.359Z,98457.81
2022-11-17T07:09:11.200Z,98456.34
2022-11-17T07:09:58.182Z,98456.53
2022-11-17T07:10:49.293Z,98453.25
2022-11-17T07:11:36.649Z,98462.16
2022-11-17T07:12:23.621Z,98458.00
2022-11-17T07:13:10.529Z,98462.94
2022-11-17T07:13:58.430Z,98465.47
2022-11-17T07:14:45.299Z,98455.31
2022-11-17T07:15:32.314Z,98460.25
2022-11-17T07:16:23.992Z,98469.56
2022-11-17T07:17:11.159Z,98467.94
2022-11-17T07:17:58.874Z,98467.50
2022-11-17T07:18:45.881Z,98472.88
2022-11-17T07:19:32.791Z,98467.34
2022-11-17T07:20:19.881Z,98467.09
2022-11-17T07:21:08.493Z,98465.88
2022-11-17T07:21:55.504Z,98469.16
2022-11-17T07:22:42.600Z,98465.84
2022-11-17T07:23:30.050Z,98465.22
2022-11-17T07:24:16.902Z,98471.00
2022-11-17T07:25:05.073Z,98467.50
2022-11-17T07:25:53.510Z,98464.19
2022-11-17T07:26:40.657Z,98466.66
2022-11-17T07:27:27.760Z,98467.91
2022-11-17T07:28:15.241Z,98465.81
2022-11-17T07:29:02.317Z,98470.41
2022-11-17T07:29:49.231Z,98468.72
2022-11-17T07:30:36.453Z,98466.22
2022-11-17T07:31:23.599Z,98465.16
2022-11-17T07:32:14.073Z,98467.00
2022-11-17T07:33:03.793Z,98465.34
2022-11-17T07:33:50.979Z,98465.75
2022-11-17T07:34:37.920Z,98472.81
2022-11-17T07:35:25.049Z,98466.44
2022-11-17T07:36:14.829Z,98466.22
2022-11-17T07:37:01.690Z,98456.28
2022-11-17T07:37:48.720Z,98457.69
2022-11-17T07:38:36.438Z,98457.88
2022-11-17T07:39:23.631Z,98456.84
2022-11-17T07:40:11.009Z,98456.41
2022-11-17T07:40:59.548Z,98461.56
2022-11-17T07:41:46.469Z,98458.22
2022-11-17T07:42:33.405Z,98460.94
2022-11-17T07:43:20.261Z,98463.00
2022-11-17T07:44:07.392Z,98459.28
2022-11-17T07:44:54.500Z,98464.19
2022-11-17T07:45:41.489Z,98462.09
2022-11-17T07:46:28.429Z,98455.72
2022-11-17T07:47:15.539Z,98455.94
2022-11-17T07:48:04.200Z,98452.59
2022-11-17T07:48:55.089Z,98456.72
2022-11-17T07:49:41.990Z,98458.09
2022-11-17T07:50:29.762Z,98461.37
2022-11-17T07:51:17.691Z,98460.50
2022-11-17T07:52:04.778Z,98462.37
2022-11-17T07:52:52.850Z,98462.37
2022-11-17T07:53:39.760Z,98466.28
2022-11-17T07:54:26.640Z,98462.09
2022-11-17T07:55:13.640Z,98474.97
2022-11-17T07:56:08.379Z,98466.47
2022-11-17T07:56:55.420Z,98468.34
2022-11-17T07:57:42.269Z,98479.75
2022-11-17T07:58:30.280Z,98478.44
2022-11-17T07:59:21.129Z,98471.09
2022-11-17T08:00:09.019Z,98474.06
2022-11-17T08:00:56.088Z,98470.91
2022-11-17T08:01:43.218Z,98468.81
2022-11-17T08:02:30.191Z,98470.44
2022-11-17T08:03:17.131Z,98467.28
2022-11-17T08:04:04.291Z,98461.66
2022-11-17T08:04:51.189Z,98466.19
2022-11-17T08:05:43.238Z,98470.72
2022-11-17T08:06:30.939Z,98472.56
2022-11-17T08:07:18.016Z,98479.03
2022-11-17T08:08:05.978Z,98481.53
2022-11-17T08:08:53.789Z,98481.06
2022-11-17T08:09:40.840Z,98474.91
2022-11-17T08:10:31.490Z,98478.00
2022-11-17T08:11:19.579Z,98480.38
2022-11-17T08:12:06.709Z,98476.59
2022-11-17T08:12:54.950Z,98468.44
2022-11-17T08:13:41.940Z,98467.81
2022-11-17T08:14:29.950Z,98465.06
2022-11-17T08:15:17.235Z,98463.25
2022-11-17T08:16:04.566Z,98453.44
2022-11-17T08:16:51.487Z,98456.13
2022-11-17T08:17:38.478Z,98456.28
2022-11-17T08:18:26.191Z,98462.22
2022-11-17T08:19:14.519Z,98464.59
2022-11-17T08:20:01.423Z,98457.78
2022-11-17T08:20:48.289Z,98460.87
2022-11-17T08:21:37.091Z,98461.13
2022-11-17T08:22:24.347Z,98450.19
2022-11-17T08:23:11.246Z,98456.38
2022-11-17T08:23:58.394Z,98452.22
2022-11-17T08:24:45.247Z,98458.22
2022-11-17T08:25:32.234Z,98453.34
2022-11-17T08:26:21.039Z,98454.56
2022-11-17T08:27:07.932Z,98450.41
2022-11-17T08:27:56.334Z,98452.88
2022-11-17T08:28:43.230Z,98445.31
2022-11-17T08:29:30.132Z,98449.50
2022-11-17T08:30:17.247Z,98448.16
2022-11-17T08:31:05.810Z,98447.56
2022-11-17T08:31:52.755Z,98444.19
2022-11-17T08:32:39.775Z,98442.69
2022-11-17T08:33:26.588Z,98442.03
2022-11-17T08:34:13.679Z,98450.53
2022-11-17T08:35:00.618Z,98449.09
2022-11-17T08:35:47.538Z,98452.22
2022-11-17T08:36:34.489Z,98459.31
2022-11-17T08:37:21.468Z,98453.28
2022-11-17T08:38:11.755Z,98457.34
2022-11-17T08:38:58.678Z,98456.28
2022-11-17T08:39:45.610Z,98459.53
2022-11-17T08:40:32.859Z,98464.03
2022-11-17T08:41:20.035Z,98458.97
2022-11-17T08:42:06.987Z,98460.81
2022-11-17T08:43:00.992Z,98461.28
2022-11-17T08:43:48.509Z,98462.47
2022-11-17T08:44:35.402Z,98463.41
2022-11-17T08:45:22.479Z,98463.16
2022-11-17T08:46:12.848Z,98462.28
2022-11-17T08:46:59.818Z,98464.53
2022-11-17T08:47:46.854Z,98459.16
2022-11-17T08:48:34.030Z,98454.84
2022-11-17T08:49:21.111Z,98461.94
2022-11-17T08:50:09.059Z,98462.16
2022-11-17T08:50:56.310Z,98462.59
2022-11-17T08:51:43.232Z,98461.97
2022-11-17T08:52:30.239Z,98464.03
2022-11-17T08:53:19.286Z,98457.34
2022-11-17T08:54:06.202Z,98459.44
2022-11-17T08:54:53.260Z,98454.91
2022-11-17T08:55:41.401Z,98449.06
2022-11-17T08:56:28.534Z,98453.37
2022-11-17T08:57:15.457Z,98454.84
2022-11-17T08:58:04.258Z,98453.41
2022-11-17T08:58:51.341Z,98449.50
2022-11-17T08:59:38.288Z,98454.72
2022-11-17T09:00:25.271Z,98443.31
2022-11-17T09:01:16.035Z,98452.00
2022-11-17T09:02:03.341Z,98453.28
2022-11-17T09:02:50.339Z,98460.09
2022-11-17T09:03:37.788Z,98457.84
2022-11-17T09:04:24.758Z,98460.31
2022-11-17T09:05:11.988Z,98457.00
2022-11-17T09:06:00.400Z,98457.41
2022-11-17T09:06:47.303Z,98456.38
2022-11-17T09:07:35.103Z,98458.62
2022-11-17T09:08:44.499Z,98460.06
2022-11-17T09:09:31.010Z,98454.84
2022-11-17T09:10:17.958Z,98456.34
2022-11-17T09:11:09.040Z,98457.97
2022-11-17T09:11:56.028Z,98459.84
2022-11-17T09:12:43.545Z,98463.38
2022-11-17T09:13:31.659Z,98460.00
2022-11-17T09:14:18.606Z,98465.09
2022-11-17T09:15:06.302Z,98460.75
2022-11-17T09:15:53.240Z,98464.06
2022-11-17T09:16:40.128Z,98462.19
2022-11-17T09:17:27.119Z,98464.44
2022-11-17T09:18:14.208Z,98458.94
2022-11-17T09:19:01.198Z,98461.78
2022-11-17T09:19:48.106Z,98465.94
2022-11-17T09:20:35.242Z,98466.81
2022-11-17T09:21:22.342Z,98473.47
2022-11-17T09:22:09.349Z,98473.03
2022-11-17T09:22:59.761Z,98473.47
2022-11-17T09:23:46.740Z,98470.94
2022-11-17T09:24:33.730Z,98469.84
2022-11-17T09:25:20.603Z,98474.66
2022-11-17T09:26:10.520Z,98476.75
2022-11-17T09:26:57.739Z,98475.63
2022-11-17T09:27:44.837Z,98478.53
2022-11-17T09:28:32.418Z,98477.25
2022-11-17T09:29:20.769Z,98475.97
2022-11-17T09:30:11.809Z,98480.56
2022-11-17T09:31:00.382Z,98481.31
2022-11-17T09:31:48.394Z,98482.31
2022-11-17T09:32:35.948Z,98485.25
2022-11-17T09:34:21.880Z,98478.75
2022-11-17T09:35:09.716Z,98482.22
2022-11-17T09:35:59.827Z,98488.69
2022-11-17T09:36:49.277Z,98485.72
2022-11-17T09:37:36.548Z,98480.88
2022-11-17T09:38:23.517Z,98486.22
2022-11-17T09:39:10.451Z,98486.78
2022-11-17T09:39:57.426Z,98488.88
2022-11-17T09:40:44.505Z,98477.56
2022-11-17T09:41:44.377Z,98484.22
2022-11-17T09:42:31.395Z,98489.97
2022-11-17T09:43:34.396Z,98477.59
2022-11-17T09:44:40.515Z,98480.22
2022-11-17T09:45:38.164Z,98479.03
2022-11-17T09:47:03.380Z,98475.25
2022-11-17T09:48:33.387Z,98488.41
2022-11-17T09:49:19.419Z,98482.56
2022-11-17T09:50:18.383Z,98487.66
2022-11-17T09:51:08.977Z,98487.38
2022-11-17T09:51:58.909Z,98485.88
2022-11-17T09:52:49.383Z,98478.88
2022-11-17T09:53:43.970Z,98482.00
2022-11-17T09:54:41.236Z,98480.44
2022-11-17T09:55:37.323Z,98482.94
2022-11-17T09:56:26.659Z,98482.78